• Join FlightAware (Why Join?)
  • Login
  • US Flag 
11:44AM EDT


 

Airport Tracker/Info


-or-


 

Live Flight TrackerFlight Track Log ✈ ASQ5958 ✈ 08-May-2013 ✈ KSYR - KORD

Flight Track Log - Related Links

Times and Time Zones

All times are in EDT time to prevent confusion due to time zone crossing. See the ASQ5958 flight status page for this flight to view local times or setup timezone preferences in your user account.

Time Position Orientation Groundspeed Altitude Reporting Facility
EDT Latitude Longitude Course Direction KTS MPH feet Rate Location/Type
12:18PM 43.1006 -76.0889 286° West 162 186 1,100  Level Boston Center
12:19PM 43.0864 -76.0736 142° Southeast 171 197 2,000 2,100 Climbing Boston Center
12:20PM 43.0617 -76.1378 242° Southwest 236 272 4,100 1,860 Climbing Boston Center
12:21PM 43.1322 -76.2672 307° West 272 313 7,200 1,920 Climbing Cleveland Center
12:22PM 43.1750 -76.3553 304° West 277 319 9,500 1,620 Climbing Cleveland Center
12:23PM 43.1731 -76.4722 269° West 278 320 10,500 900 Climbing Cleveland Center
12:24PM 43.2483 -76.7638 286° West  Level FlightAware Approximate
12:24PM 43.1692 -76.6064 268° West 326 375 11,300  Level Cleveland Center
12:25PM 43.1700 -76.7486 271° West 356 410 12,400 1,260 Climbing Cleveland Center
12:26PM 43.1683 -76.8911 269° West 374 430 13,900 1,440 Climbing Cleveland Center
12:27PM 43.1667 -77.0364 269° West 384 442 15,300 1,320 Climbing Cleveland Center
12:28PM 43.1772 -77.1811 276° West 384 442 16,600 1,260 Climbing Cleveland Center
12:29PM 43.2000 -77.3250 282° West 384 442 17,900 1,260 Climbing Cleveland Center
12:30PM 43.2083 -77.4700 275° West 390 449 19,200 1,260 Climbing Cleveland Center
12:31PM 43.2142 -77.6178 273° West 390 449 20,500 1,320 Climbing Cleveland Center
12:32PM 43.2075 -77.7661 267° West 385 443 21,900 1,320 Climbing Cleveland Center
12:33PM 43.2047 -77.9172 269° West 390 449 23,200 1,140 Climbing Cleveland Center
12:34PM 43.1958 -78.0772 266° West 401 461 24,200 1,140 Climbing Cleveland Center
12:35PM 43.1886 -78.2283 266° West 408 470 25,500 1,200 Climbing Cleveland Center
12:36PM 43.1814 -78.3967 267° West 418 481 26,600 1,200 Climbing Cleveland Center
12:37PM 43.1764 -78.5706 268° West 425 489 27,900 1,200 Climbing Cleveland Center
12:38PM 43.1706 -78.7217 267° West 419 482 29,000 1,200 Climbing Cleveland Center
12:39PM 43.1625 -78.8783 266° West 419 482 30,300 1,200 Climbing Cleveland Center
12:40PM 43.1500 -78.9000 232° Southwest 410 472 30,700 960 Climbing Toronto Center
12:41PM 43.1500 -79.0667 270° West 410 472 31,700 900 Climbing Toronto Center
12:42PM 43.1333 -79.2167 261° West 410 472 32,600 900 Climbing Toronto Center
12:43PM 43.1333 -79.3833 270° West 420 483 33,500 660 Climbing Toronto Center
12:44PM 43.1833 -79.5333 295° West 430 495 34,000 240 Climbing Toronto Center
12:45PM 43.2500 -79.6500 308° West 450 518 34,000  Level Toronto Center
12:46PM 43.3333 -79.8000 307° West 460 529 34,000 240 Level Toronto Center
12:47PM 43.4167 -79.9333 311° West 460 529 34,500 780 Climbing Toronto Center
12:48PM 43.5167 -80.0667 316° Northwest 460 529 35,600 720 Climbing Toronto Center
12:49PM 43.5500 -80.2000 289° West 440 506 36,000 180 Climbing Toronto Center
12:50PM 43.5333 -80.3667 262° West 430 495 36,000  Level Toronto Center
12:51PM 43.5000 -80.5333 255° West 410 472 36,000  Level Toronto Center
12:52PM 43.4833 -80.6833 261° West 410 472 36,000  Level Toronto Center
12:53PM 43.4333 -80.8333 245° Southwest 420 483 36,000  Level Toronto Center
12:54PM 43.4167 -81.0167 263° West 440 506 36,000  Level Toronto Center
12:55PM 43.4000 -81.1667 261° West 450 518 36,000  Level Toronto Center
12:56PM 43.3667 -81.3500 256° West 440 506 36,000  Level Toronto Center
12:57PM 43.3500 -81.5167 262° West 440 506 36,000  Level Toronto Center
12:58PM 43.3167 -81.6667 253° West 450 518 36,000  Level Toronto Center
12:59PM 43.3000 -81.8333 262° West 450 518 36,000  Level Toronto Center
01:00PM 43.2500 -82.0167 250° West 450 518 36,000  Level Toronto Center
01:01PM 43.2333 -82.1667 261° West 450 518 36,000  Level Toronto Center
01:02PM 43.2000 -82.3333 255° West 440 506 36,000  Level Toronto Center
01:03PM 43.1833 -82.4833 261° West 440 506 36,000  Level Toronto Center
01:04PM 43.1333 -82.6667 250° West 450 518 36,000  Level Toronto Center
01:04PM 43.1442 -82.7486 280° West 450 518 36,000  Level Cleveland Center
01:05PM 43.1161 -82.9181 257° West 455 524 36,000  Level Cleveland Center
01:06PM 43.0831 -83.0931 256° West 462 532 36,000  Level Cleveland Center
01:07PM 43.0564 -83.2597 258° West 462 532 36,000  Level Cleveland Center
01:08PM 43.0256 -83.4203 255° West 462 532 36,000  Level Cleveland Center
01:09PM 42.9964 -83.5836 256° West 452 520 36,000  Level Cleveland Center
01:10PM 42.9650 -83.7497 256° West 452 520 36,000  Level Cleveland Center
01:11PM 42.9500 -83.9106 263° West 447 514 36,000 -300 Level Cleveland Center
01:12PM 42.9328 -84.0686 262° West 442 509 35,500 -960 Descending Cleveland Center
01:13PM 42.9172 -84.2322 263° West 442 509 34,100 -1,620 Descending Cleveland Center
01:14PM 42.9017 -84.3900 262° West 442 509 32,300 -1,320 Descending Cleveland Center
01:15PM 42.8961 -84.4600 264° West 434 499 32,100 -240 Descending Chicago Center
01:16PM 42.8797 -84.6228 262° West 435 501 32,000 -60 Descending Chicago Center
01:17PM 42.8633 -84.7839 262° West 432 497 32,000  Level Chicago Center
01:18PM 42.8456 -84.9467 262° West 434 499 32,000  Level Chicago Center
01:19PM 42.8253 -85.1436 262° West 437 503 32,000  Level Chicago Center
01:20PM 42.8067 -85.3100 261° West 443 510 32,000  Level Chicago Center
01:21PM 42.7881 -85.4761 261° West 444 511 32,000  Level Chicago Center
01:22PM 42.7606 -85.6417 257° West 447 514 32,000 -360 Level Chicago Center
01:23PM 42.7308 -85.8061 256° West 445 512 31,300 -1,500 Descending Chicago Center
01:24PM 42.7014 -85.9667 256° West 437 503 28,900 -2,460 Descending Chicago Center
01:25PM 42.6719 -86.1281 256° West 437 503 26,300 -2,760 Descending Chicago Center
01:26PM 42.6361 -86.3233 256° West 441 507 23,200 -2,880 Descending Chicago Center
01:27PM 42.6069 -86.4778 256° West 429 494 20,400 -2,640 Descending Chicago Center
01:28PM 42.5778 -86.6303 255° West 419 482 17,700 -2,520 Descending Chicago Center
01:29PM 42.5481 -86.7775 255° West 408 470 15,200 -2,520 Descending Chicago Center
01:30PM 42.5103 -86.9125 249° West 388 447 12,600 -2,340 Descending Chicago Center
01:31PM 42.4756 -87.0397 250° West 366 421 10,400 -1,560 Descending Chicago Center
01:32PM 42.4381 -87.1711 249° West 315 362 9,400 -1,260 Descending Chicago Center
01:33PM 42.4125 -87.2661 250° West 279 321 7,800 -1,500 Descending Chicago Center
01:34PM 42.3556 -87.3219 216° Southwest 272 313 6,300 -900 Descending Chicago Center
01:35PM 42.2886 -87.3494 197° South 254 292 6,000 -540 Descending Chicago Center
01:36PM 42.2194 -87.3775 197° South 257 296 5,300 -540 Descending Chicago Center
01:38PM 42.1378 -87.4114 197° South 259 298 5,000 -180 Descending Chicago Center
01:38PM 42.0833 -87.4333 197° South 226 260 5,000 -540 Level Chicago TRACON
01:39PM 42.0500 -87.5000 236° Southwest 233 268 4,100 -540 Descending Chicago TRACON
01:40PM 42.0167 -87.5500 228° Southwest 221 254 4,000 -60 Descending Chicago TRACON
01:41PM 42.0000 -87.6500 257° West 227 261 4,000 -480 Level Chicago TRACON
01:42PM 42.0000 -87.7333 270° West 225 259 3,000 -1,020 Descending Chicago TRACON
01:43PM 42.0000 -87.8000 270° West 204 235 2,100 -900 Descending Chicago TRACON
01:44PM 42.0000 -87.8667 270° West 149 171 1,300 -840 Descending Chicago TRACON
01:47PM 41.9667 -87.9000 217° Southwest  Level FlightAware Approximate